createdAt,value
2022-11-20T00:03:00.916Z,-1.94
2022-11-20T00:08:02.873Z,-2.01
2022-11-20T00:13:05.071Z,-2.03
2022-11-20T00:18:07.013Z,-2.06
2022-11-20T00:23:08.846Z,-2.07
2022-11-20T00:28:10.674Z,-2.10
2022-11-20T00:33:12.472Z,-2.11
2022-11-20T00:38:14.275Z,-2.12
2022-11-20T00:43:16.084Z,-2.15
2022-11-20T00:48:18.068Z,-2.15
2022-11-20T00:53:19.987Z,-2.18
2022-11-20T00:58:22.690Z,-2.19
2022-11-20T01:03:27.162Z,-2.22
2022-11-20T01:08:34.587Z,-2.24
2022-11-20T01:13:40.465Z,-2.24
2022-11-20T01:18:45.123Z,-2.24
2022-11-20T01:23:48.766Z,-2.23
2022-11-20T01:28:51.471Z,-2.21
2022-11-20T01:33:56.133Z,-2.20
2022-11-20T01:39:01.126Z,-2.21
2022-11-20T01:44:05.740Z,-2.21
2022-11-20T01:49:16.463Z,-2.22
2022-11-20T01:54:24.911Z,-2.22
2022-11-20T01:59:29.263Z,-2.22
2022-11-20T02:04:31.413Z,-2.22
2022-11-20T02:09:33.330Z,-2.22
2022-11-20T02:14:35.347Z,-2.22
2022-11-20T02:19:37.136Z,-2.22
2022-11-20T02:24:39.086Z,-2.25
2022-11-20T02:29:54.075Z,-2.29
2022-11-20T02:34:56.656Z,-2.31
2022-11-20T02:39:58.573Z,-2.34
2022-11-20T02:45:00.372Z,-2.37
2022-11-20T02:50:02.411Z,-2.39
2022-11-20T02:55:04.964Z,-2.41
2022-11-20T03:00:07.975Z,-2.44
2022-11-20T03:05:09.975Z,-2.46
2022-11-20T03:10:12.063Z,-2.50
2022-11-20T03:15:13.871Z,-2.51
2022-11-20T03:20:15.838Z,-2.52
2022-11-20T03:25:17.600Z,-2.53
2022-11-20T03:30:19.684Z,-2.56
2022-11-20T03:35:21.628Z,-2.61
2022-11-20T03:40:23.390Z,-2.66
2022-11-20T03:45:25.259Z,-2.66
2022-11-20T03:50:27.054Z,-2.67
2022-11-20T03:55:29.205Z,-2.68
2022-11-20T04:00:31.151Z,-2.69
2022-11-20T04:05:35.193Z,-2.71
2022-11-20T04:10:37.052Z,-2.69
2022-11-20T04:15:38.859Z,-2.69
2022-11-20T04:20:40.620Z,-2.70
2022-11-20T04:25:42.627Z,-2.71
2022-11-20T04:30:44.593Z,-2.71
2022-11-20T04:35:48.454Z,-2.74
2022-11-20T04:40:50.291Z,-2.76
2022-11-20T04:45:53.589Z,-2.77
2022-11-20T04:50:55.835Z,-2.81
2022-11-20T04:56:06.701Z,-2.84
2022-11-20T05:01:14.545Z,-2.85
2022-11-20T05:06:19.135Z,-2.86
2022-11-20T05:11:22.228Z,-2.87
2022-11-20T05:16:25.567Z,-2.90
2022-11-20T05:21:28.796Z,-2.90
2022-11-20T05:26:30.565Z,-2.91
2022-11-20T05:31:32.347Z,-2.92
2022-11-20T05:36:34.283Z,-2.95
2022-11-20T05:41:36.075Z,-2.98
2022-11-20T05:46:38.060Z,-3.00
2022-11-20T05:51:39.988Z,-3.00
2022-11-20T05:56:41.826Z,-2.99
2022-11-20T06:01:43.696Z,-3.00
2022-11-20T06:06:45.505Z,-2.99
2022-11-20T06:11:47.316Z,-3.01
2022-11-20T06:16:49.350Z,-3.02
2022-11-20T06:21:51.228Z,-3.03
2022-11-20T06:26:53.028Z,-3.05
2022-11-20T06:31:54.788Z,-3.03
2022-11-20T06:36:56.626Z,-3.02
2022-11-20T06:41:59.155Z,-3.03
2022-11-20T06:47:02.115Z,-3.04
2022-11-20T06:52:04.248Z,-3.03
2022-11-20T06:57:06.059Z,-2.98
2022-11-20T07:02:13.024Z,-2.94
2022-11-20T07:07:14.881Z,-2.89
2022-11-20T07:12:16.663Z,-2.83
2022-11-20T07:17:18.427Z,-2.76
2022-11-20T07:22:22.921Z,-2.68
2022-11-20T07:27:24.735Z,-2.59
2022-11-20T07:32:26.621Z,-2.50
2022-11-20T07:37:28.465Z,-2.40
2022-11-20T07:42:30.469Z,-2.28
2022-11-20T07:47:38.009Z,-2.17
2022-11-20T07:52:39.818Z,-2.05
2022-11-20T07:57:42.048Z,-1.94
2022-11-20T08:02:44.450Z,-1.82
2022-11-20T08:07:46.505Z,-1.69
2022-11-20T08:13:12.149Z,-1.56
2022-11-20T08:23:38.792Z,-1.32
2022-11-20T08:28:41.036Z,-1.22
2022-11-20T08:33:42.836Z,-1.10
2022-11-20T08:38:50.099Z,-0.99
2022-11-20T08:43:54.646Z,-0.89
2022-11-20T08:48:56.494Z,-0.79
2022-11-20T08:53:59.978Z,-0.71
2022-11-20T08:59:22.926Z,-0.59
2022-11-20T09:04:24.484Z,-0.47
2022-11-20T09:09:26.361Z,-0.36
2022-11-20T09:14:30.264Z,-0.24
2022-11-20T09:19:36.284Z,-0.10
2022-11-20T09:24:38.516Z,0.08
2022-11-20T09:29:40.547Z,0.10
2022-11-20T09:34:42.358Z,0.10
2022-11-20T09:39:44.797Z,0.05
2022-11-20T09:44:52.579Z,0.10
2022-11-20T09:49:57.431Z,0.23
2022-11-20T09:55:02.243Z,0.23
2022-11-20T10:00:07.072Z,0.29
2022-11-20T10:05:26.952Z,0.36
2022-11-20T10:10:43.940Z,0.33
2022-11-20T10:15:46.163Z,0.32
2022-11-20T10:20:54.562Z,0.26
2022-11-20T10:26:02.442Z,0.24
2022-11-20T10:31:09.796Z,0.26
2022-11-20T10:36:28.693Z,0.27
2022-11-20T10:41:37.236Z,0.40
2022-11-20T10:46:45.757Z,0.49
2022-11-20T10:51:47.437Z,0.67
2022-11-20T10:56:54.133Z,0.83
2022-11-20T11:01:55.965Z,0.81
2022-11-20T11:07:09.526Z,0.79
2022-11-20T11:12:12.027Z,0.77
2022-11-20T11:17:29.596Z,0.79
2022-11-20T11:22:33.978Z,0.80
2022-11-20T11:27:46.331Z,0.87
2022-11-20T11:32:48.677Z,0.91
2022-11-20T11:37:52.168Z,0.89
2022-11-20T11:42:57.798Z,0.86
2022-11-20T11:48:04.162Z,0.81
2022-11-20T11:53:18.857Z,0.80
2022-11-20T11:58:51.362Z,0.80
2022-11-20T12:04:21.637Z,0.77
2022-11-20T12:09:38.986Z,0.74
2022-11-20T12:14:44.444Z,0.76
2022-11-20T12:19:46.191Z,0.84
2022-11-20T12:24:53.447Z,0.91
2022-11-20T12:30:14.174Z,0.95
2022-11-20T12:35:50.055Z,0.97
2022-11-20T12:41:06.492Z,0.99
2022-11-20T12:46:14.075Z,1.02
2022-11-20T12:51:16.400Z,0.99
2022-11-20T12:56:40.459Z,0.95
2022-11-20T13:01:51.368Z,0.96
2022-11-20T13:06:53.558Z,0.96
2022-11-20T13:12:11.848Z,0.97
2022-11-20T13:17:19.890Z,0.99
2022-11-20T13:22:28.134Z,1.01
2022-11-20T13:27:32.095Z,1.06
2022-11-20T13:32:34.257Z,1.08
2022-11-20T13:37:38.494Z,1.09
2022-11-20T13:42:55.786Z,1.08
2022-11-20T13:48:06.535Z,1.09
2022-11-20T13:53:38.913Z,1.11
2022-11-20T13:59:15.128Z,1.11
2022-11-20T14:04:25.635Z,1.13
2022-11-20T14:09:29.094Z,1.14
2022-11-20T14:14:34.184Z,1.10
2022-11-20T14:19:38.275Z,1.07
2022-11-20T14:24:40.086Z,1.03
2022-11-20T14:29:43.963Z,1.02
2022-11-20T14:34:48.577Z,1.00
2022-11-20T14:39:54.731Z,0.99
2022-11-20T14:45:00.319Z,0.98
2022-11-20T14:50:08.669Z,0.95
2022-11-20T14:55:15.474Z,0.88
2022-11-20T15:00:17.387Z,0.80
2022-11-20T15:05:21.859Z,0.71
2022-11-20T15:10:28.847Z,0.64
2022-11-20T15:15:33.323Z,0.57
2022-11-20T15:20:37.242Z,0.53
2022-11-20T15:25:40.918Z,0.48
2022-11-20T15:30:42.735Z,0.45
2022-11-20T15:35:45.624Z,0.41
2022-11-20T15:40:47.534Z,0.37
2022-11-20T15:45:56.458Z,0.32
2022-11-20T15:51:04.879Z,0.29
2022-11-20T15:56:07.493Z,0.27
2022-11-20T16:01:18.222Z,0.24
2022-11-20T16:06:20.274Z,0.20
2022-11-20T16:11:22.133Z,0.18
2022-11-20T16:16:29.758Z,0.15
2022-11-20T16:21:32.526Z,0.14
2022-11-20T16:26:35.027Z,0.12
2022-11-20T16:31:36.926Z,0.11
2022-11-20T16:36:41.717Z,0.11
2022-11-20T16:41:43.518Z,0.09
2022-11-20T16:46:45.522Z,0.08
2022-11-20T16:51:47.498Z,0.07
2022-11-20T16:56:51.087Z,0.03
2022-11-20T17:01:52.887Z,0.00
2022-11-20T17:06:54.867Z,-0.01
2022-11-20T17:11:56.644Z,-0.03
2022-11-20T17:16:58.786Z,-0.03
2022-11-20T17:22:00.964Z,-0.04
2022-11-20T17:27:02.826Z,-0.07
2022-11-20T17:32:04.695Z,-0.07
2022-11-20T17:37:06.917Z,-0.10
2022-11-20T17:42:26.830Z,-0.13
2022-11-20T17:47:28.811Z,-0.13
2022-11-20T17:52:30.770Z,-0.15
2022-11-20T17:57:51.224Z,-0.18
2022-11-20T18:02:53.318Z,-0.20
2022-11-20T18:07:55.287Z,-0.24
2022-11-20T18:12:57.117Z,-0.27
2022-11-20T18:17:59.018Z,-0.30
2022-11-20T18:23:02.000Z,-0.35
2022-11-20T18:28:03.760Z,-0.39
2022-11-20T18:33:05.845Z,-0.38
2022-11-20T18:38:07.812Z,-0.38
2022-11-20T18:43:30.415Z,-0.38
2022-11-20T18:48:32.268Z,-0.37
2022-11-20T18:53:39.966Z,-0.37
2022-11-20T18:58:44.964Z,-0.37
2022-11-20T19:03:47.256Z,-0.40
2022-11-20T19:08:49.007Z,-0.45
2022-11-20T19:13:51.359Z,-0.45
2022-11-20T19:18:53.169Z,-0.45
2022-11-20T19:23:58.839Z,-0.47
2022-11-20T19:29:00.673Z,-0.49
2022-11-20T19:34:04.081Z,-0.50
2022-11-20T19:39:07.762Z,-0.52
2022-11-20T19:44:15.094Z,-0.49
2022-11-20T19:49:16.963Z,-0.48
2022-11-20T19:54:18.811Z,-0.45
2022-11-20T19:59:20.987Z,-0.40
2022-11-20T20:04:23.325Z,-0.35
2022-11-20T20:09:27.055Z,-0.32
2022-11-20T20:14:29.042Z,-0.27
2022-11-20T20:19:30.888Z,-0.21
2022-11-20T20:24:32.899Z,-0.17
2022-11-20T20:29:34.693Z,-0.16
2022-11-20T20:34:36.610Z,-0.16
2022-11-20T20:39:38.400Z,-0.14
2022-11-20T20:44:59.331Z,-0.15
2022-11-20T20:50:03.200Z,-0.16
2022-11-20T20:55:05.554Z,-0.13
2022-11-20T21:00:09.166Z,-0.08
2022-11-20T21:05:11.067Z,-0.06
2022-11-20T21:10:12.878Z,-0.05
2022-11-20T21:15:14.746Z,-0.02
2022-11-20T21:20:35.476Z,-0.02
2022-11-20T21:25:39.366Z,-0.01
2022-11-20T21:30:41.191Z,-0.02
2022-11-20T21:35:43.119Z,0.02
2022-11-20T21:40:45.013Z,0.01
2022-11-20T21:45:46.818Z,0.04
2022-11-20T21:50:49.943Z,0.06
2022-11-20T21:55:55.797Z,0.09
2022-11-20T22:00:58.145Z,0.13
2022-11-20T22:06:00.056Z,0.14
2022-11-20T22:11:04.604Z,0.18
2022-11-20T22:16:06.584Z,0.21
2022-11-20T22:21:08.396Z,0.23
2022-11-20T22:26:21.740Z,0.25
2022-11-20T22:31:26.074Z,0.26
2022-11-20T22:36:30.372Z,0.27
2022-11-20T22:41:32.937Z,0.30
2022-11-20T22:46:37.480Z,0.29
2022-11-20T22:51:41.445Z,0.29
2022-11-20T22:56:43.409Z,0.28
2022-11-20T23:01:45.261Z,0.26
2022-11-20T23:06:47.056Z,0.24
2022-11-20T23:11:48.847Z,0.24
2022-11-20T23:16:50.706Z,0.22
2022-11-20T23:21:52.519Z,0.20
2022-11-20T23:26:54.413Z,0.20
2022-11-20T23:31:56.233Z,0.15
2022-11-20T23:36:57.984Z,0.09
2022-11-20T23:41:59.937Z,0.06
2022-11-20T23:47:01.727Z,0.07
2022-11-20T23:52:03.648Z,0.07
2022-11-20T23:57:05.459Z,0.08
